sensor_id;sensor_type;location;lat;lon;timestamp;P1;durP1;ratioP1;P2;durP2;ratioP2
3700;SDS011;1866;48.374;10.766;2022-12-26T00:01:55;101.40;;;12.80;;
3700;SDS011;1866;48.374;10.766;2022-12-26T00:04:24;102.10;;;12.40;;
3700;SDS011;1866;48.374;10.766;2022-12-26T00:06:51;102.20;;;12.40;;
3700;SDS011;1866;48.374;10.766;2022-12-26T00:09:18;101.20;;;12.90;;
3700;SDS011;1866;48.374;10.766;2022-12-26T00:11:45;101.17;;;13.23;;
3700;SDS011;1866;48.374;10.766;2022-12-26T00:14:13;102.73;;;13.60;;
3700;SDS011;1866;48.374;10.766;2022-12-26T00:16:41;102.17;;;13.33;;
3700;SDS011;1866;48.374;10.766;2022-12-26T00:19:11;104.70;;;14.17;;
3700;SDS011;1866;48.374;10.766;2022-12-26T00:21:38;101.80;;;13.07;;
3700;SDS011;1866;48.374;10.766;2022-12-26T00:24:05;101.67;;;13.07;;
3700;SDS011;1866;48.374;10.766;2022-12-26T00:26:34;103.20;;;13.83;;
3700;SDS011;1866;48.374;10.766;2022-12-26T00:29:01;102.20;;;13.40;;
3700;SDS011;1866;48.374;10.766;2022-12-26T00:31:29;102.07;;;13.30;;
3700;SDS011;1866;48.374;10.766;2022-12-26T00:33:58;104.90;;;13.50;;
3700;SDS011;1866;48.374;10.766;2022-12-26T00:36:27;101.87;;;13.53;;
3700;SDS011;1866;48.374;10.766;2022-12-26T00:38:57;103.17;;;13.37;;
3700;SDS011;1866;48.374;10.766;2022-12-26T00:41:25;102.97;;;13.43;;
3700;SDS011;1866;48.374;10.766;2022-12-26T00:43:52;101.47;;;13.30;;
3700;SDS011;1866;48.374;10.766;2022-12-26T00:46:20;101.57;;;12.67;;
3700;SDS011;1866;48.374;10.766;2022-12-26T00:48:47;102.07;;;13.50;;
3700;SDS011;1866;48.374;10.766;2022-12-26T00:51:14;102.40;;;13.70;;
3700;SDS011;1866;48.374;10.766;2022-12-26T00:53:43;105.00;;;13.70;;
3700;SDS011;1866;48.374;10.766;2022-12-26T00:56:10;103.10;;;13.50;;
3700;SDS011;1866;48.374;10.766;2022-12-26T00:58:37;101.23;;;13.73;;
3700;SDS011;1866;48.374;10.766;2022-12-26T01:01:05;103.20;;;13.73;;
3700;SDS011;1866;48.374;10.766;2022-12-26T01:03:38;101.60;;;13.43;;
3700;SDS011;1866;48.374;10.766;2022-12-26T01:06:05;102.40;;;13.83;;
3700;SDS011;1866;48.374;10.766;2022-12-26T01:08:32;104.57;;;13.87;;
3700;SDS011;1866;48.374;10.766;2022-12-26T01:11:02;104.30;;;13.90;;
3700;SDS011;1866;48.374;10.766;2022-12-26T01:13:32;102.67;;;14.60;;
3700;SDS011;1866;48.374;10.766;2022-12-26T01:15:59;103.67;;;14.77;;
3700;SDS011;1866;48.374;10.766;2022-12-26T01:18:26;103.27;;;14.20;;
3700;SDS011;1866;48.374;10.766;2022-12-26T01:20:56;103.30;;;13.67;;
3700;SDS011;1866;48.374;10.766;2022-12-26T01:23:24;107.30;;;14.03;;
3700;SDS011;1866;48.374;10.766;2022-12-26T01:25:51;104.90;;;14.10;;
3700;SDS011;1866;48.374;10.766;2022-12-26T01:28:19;103.70;;;14.87;;
3700;SDS011;1866;48.374;10.766;2022-12-26T01:30:46;104.80;;;15.00;;
3700;SDS011;1866;48.374;10.766;2022-12-26T01:33:12;103.47;;;14.00;;
3700;SDS011;1866;48.374;10.766;2022-12-26T01:35:47;102.20;;;14.00;;
3700;SDS011;1866;48.374;10.766;2022-12-26T01:38:15;104.13;;;13.97;;
3700;SDS011;1866;48.374;10.766;2022-12-26T01:40:42;102.87;;;13.97;;
3700;SDS011;1866;48.374;10.766;2022-12-26T01:43:10;101.90;;;13.97;;
3700;SDS011;1866;48.374;10.766;2022-12-26T01:45:38;102.77;;;14.40;;
3700;SDS011;1866;48.374;10.766;2022-12-26T01:48:12;103.13;;;14.40;;
3700;SDS011;1866;48.374;10.766;2022-12-26T01:50:46;102.80;;;14.27;;
3700;SDS011;1866;48.374;10.766;2022-12-26T01:53:17;102.20;;;13.97;;
3700;SDS011;1866;48.374;10.766;2022-12-26T01:55:47;102.60;;;14.27;;
3700;SDS011;1866;48.374;10.766;2022-12-26T01:58:20;102.10;;;14.23;;
3700;SDS011;1866;48.374;10.766;2022-12-26T02:00:51;102.27;;;14.20;;
3700;SDS011;1866;48.374;10.766;2022-12-26T02:03:19;104.57;;;14.30;;
3700;SDS011;1866;48.374;10.766;2022-12-26T02:06:03;102.90;;;13.80;;
3700;SDS011;1866;48.374;10.766;2022-12-26T02:08:31;103.10;;;13.80;;
3700;SDS011;1866;48.374;10.766;2022-12-26T02:11:02;102.53;;;13.67;;
3700;SDS011;1866;48.374;10.766;2022-12-26T02:13:36;101.37;;;13.70;;
3700;SDS011;1866;48.374;10.766;2022-12-26T02:16:05;102.47;;;13.90;;
3700;SDS011;1866;48.374;10.766;2022-12-26T02:18:35;102.57;;;13.60;;
3700;SDS011;1866;48.374;10.766;2022-12-26T02:21:10;101.37;;;13.17;;
3700;SDS011;1866;48.374;10.766;2022-12-26T02:23:59;101.50;;;12.97;;
3700;SDS011;1866;48.374;10.766;2022-12-26T02:30:01;102.30;;;13.27;;
3700;SDS011;1866;48.374;10.766;2022-12-26T02:35:46;105.27;;;14.10;;
3700;SDS011;1866;48.374;10.766;2022-12-26T02:38:27;102.47;;;14.07;;
3700;SDS011;1866;48.374;10.766;2022-12-26T02:41:02;101.97;;;13.93;;
3700;SDS011;1866;48.374;10.766;2022-12-26T02:43:43;103.93;;;14.27;;
3700;SDS011;1866;48.374;10.766;2022-12-26T02:46:20;103.00;;;14.10;;
3700;SDS011;1866;48.374;10.766;2022-12-26T02:49:14;104.23;;;14.80;;
3700;SDS011;1866;48.374;10.766;2022-12-26T02:51:49;103.13;;;14.60;;
3700;SDS011;1866;48.374;10.766;2022-12-26T02:54:42;102.77;;;14.20;;
3700;SDS011;1866;48.374;10.766;2022-12-26T02:57:32;103.00;;;14.40;;
3700;SDS011;1866;48.374;10.766;2022-12-26T03:00:22;104.17;;;15.10;;
3700;SDS011;1866;48.374;10.766;2022-12-26T03:03:08;103.60;;;14.93;;
3700;SDS011;1866;48.374;10.766;2022-12-26T03:05:55;103.90;;;14.93;;
3700;SDS011;1866;48.374;10.766;2022-12-26T03:08:45;104.53;;;14.73;;
3700;SDS011;1866;48.374;10.766;2022-12-26T03:11:36;104.57;;;15.17;;
3700;SDS011;1866;48.374;10.766;2022-12-26T03:14:23;104.70;;;15.37;;
3700;SDS011;1866;48.374;10.766;2022-12-26T03:16:54;105.07;;;15.30;;
3700;SDS011;1866;48.374;10.766;2022-12-26T03:19:41;104.87;;;14.80;;
3700;SDS011;1866;48.374;10.766;2022-12-26T03:22:24;103.80;;;14.43;;
3700;SDS011;1866;48.374;10.766;2022-12-26T03:25:00;103.83;;;14.47;;
3700;SDS011;1866;48.374;10.766;2022-12-26T03:27:47;104.40;;;14.70;;
3700;SDS011;1866;48.374;10.766;2022-12-26T03:30:14;105.23;;;15.17;;
3700;SDS011;1866;48.374;10.766;2022-12-26T03:32:59;104.73;;;15.37;;
3700;SDS011;1866;48.374;10.766;2022-12-26T03:35:26;111.47;;;15.90;;
3700;SDS011;1866;48.374;10.766;2022-12-26T03:37:56;105.47;;;15.97;;
3700;SDS011;1866;48.374;10.766;2022-12-26T03:43:42;106.93;;;16.30;;
3700;SDS011;1866;48.374;10.766;2022-12-26T03:46:40;107.80;;;17.17;;
3700;SDS011;1866;48.374;10.766;2022-12-26T03:49:34;107.17;;;17.03;;
3700;SDS011;1866;48.374;10.766;2022-12-26T03:52:25;109.47;;;17.30;;
3700;SDS011;1866;48.374;10.766;2022-12-26T03:55:18;108.40;;;17.50;;
3700;SDS011;1866;48.374;10.766;2022-12-26T03:58:12;109.17;;;18.00;;
3700;SDS011;1866;48.374;10.766;2022-12-26T04:01:01;110.20;;;18.50;;
3700;SDS011;1866;48.374;10.766;2022-12-26T04:03:49;108.37;;;17.83;;
3700;SDS011;1866;48.374;10.766;2022-12-26T04:06:38;109.97;;;18.10;;
3700;SDS011;1866;48.374;10.766;2022-12-26T04:09:31;107.53;;;17.30;;
3700;SDS011;1866;48.374;10.766;2022-12-26T04:12:19;107.07;;;16.73;;
3700;SDS011;1866;48.374;10.766;2022-12-26T04:15:11;106.93;;;16.47;;
3700;SDS011;1866;48.374;10.766;2022-12-26T04:18:02;106.43;;;16.40;;
3700;SDS011;1866;48.374;10.766;2022-12-26T04:20:53;107.17;;;16.30;;
3700;SDS011;1866;48.374;10.766;2022-12-26T04:23:30;106.40;;;16.07;;
3700;SDS011;1866;48.374;10.766;2022-12-26T04:26:20;106.13;;;16.00;;
3700;SDS011;1866;48.374;10.766;2022-12-26T04:29:10;106.90;;;16.13;;
3700;SDS011;1866;48.374;10.766;2022-12-26T04:31:57;106.87;;;15.57;;
3700;SDS011;1866;48.374;10.766;2022-12-26T04:34:49;105.57;;;15.00;;
3700;SDS011;1866;48.374;10.766;2022-12-26T04:37:37;103.97;;;14.80;;
3700;SDS011;1866;48.374;10.766;2022-12-26T04:40:26;105.07;;;14.70;;
3700;SDS011;1866;48.374;10.766;2022-12-26T04:43:14;104.90;;;15.00;;
3700;SDS011;1866;48.374;10.766;2022-12-26T04:45:59;104.40;;;14.73;;
3700;SDS011;1866;48.374;10.766;2022-12-26T04:48:28;103.30;;;14.20;;
3700;SDS011;1866;48.374;10.766;2022-12-26T04:51:13;104.47;;;14.53;;
3700;SDS011;1866;48.374;10.766;2022-12-26T04:53:40;102.80;;;14.37;;
3700;SDS011;1866;48.374;10.766;2022-12-26T04:56:07;104.00;;;14.93;;
3700;SDS011;1866;48.374;10.766;2022-12-26T04:58:34;104.20;;;14.90;;
3700;SDS011;1866;48.374;10.766;2022-12-26T05:01:01;105.33;;;15.50;;
3700;SDS011;1866;48.374;10.766;2022-12-26T05:03:43;105.17;;;15.83;;
3700;SDS011;1866;48.374;10.766;2022-12-26T05:06:39;106.17;;;15.83;;
3700;SDS011;1866;48.374;10.766;2022-12-26T05:09:23;105.40;;;15.80;;
3700;SDS011;1866;48.374;10.766;2022-12-26T05:12:00;104.33;;;15.70;;
3700;SDS011;1866;48.374;10.766;2022-12-26T05:14:27;104.97;;;16.00;;
3700;SDS011;1866;48.374;10.766;2022-12-26T05:16:56;104.87;;;15.43;;
3700;SDS011;1866;48.374;10.766;2022-12-26T05:19:42;105.73;;;15.73;;
3700;SDS011;1866;48.374;10.766;2022-12-26T05:22:26;109.67;;;15.53;;
3700;SDS011;1866;48.374;10.766;2022-12-26T05:25:14;104.87;;;15.70;;
3700;SDS011;1866;48.374;10.766;2022-12-26T05:28:01;107.47;;;16.40;;
3700;SDS011;1866;48.374;10.766;2022-12-26T05:30:45;105.37;;;15.83;;
3700;SDS011;1866;48.374;10.766;2022-12-26T05:33:12;105.13;;;15.53;;
3700;SDS011;1866;48.374;10.766;2022-12-26T05:35:58;104.67;;;16.17;;
3700;SDS011;1866;48.374;10.766;2022-12-26T05:38:25;107.70;;;16.60;;
3700;SDS011;1866;48.374;10.766;2022-12-26T05:40:52;106.70;;;16.80;;
3700;SDS011;1866;48.374;10.766;2022-12-26T05:43:18;110.20;;;16.30;;
3700;SDS011;1866;48.374;10.766;2022-12-26T05:45:45;106.30;;;16.13;;
3700;SDS011;1866;48.374;10.766;2022-12-26T05:48:12;107.87;;;14.90;;
3700;SDS011;1866;48.374;10.766;2022-12-26T05:50:39;105.57;;;15.20;;
3700;SDS011;1866;48.374;10.766;2022-12-26T05:53:07;104.67;;;15.07;;
3700;SDS011;1866;48.374;10.766;2022-12-26T05:55:34;104.17;;;14.80;;
3700;SDS011;1866;48.374;10.766;2022-12-26T05:58:01;105.00;;;14.87;;
3700;SDS011;1866;48.374;10.766;2022-12-26T06:00:28;104.27;;;14.67;;
3700;SDS011;1866;48.374;10.766;2022-12-26T06:02:57;104.60;;;14.77;;
3700;SDS011;1866;48.374;10.766;2022-12-26T06:05:26;103.57;;;13.90;;
3700;SDS011;1866;48.374;10.766;2022-12-26T06:07:53;110.77;;;16.60;;
3700;SDS011;1866;48.374;10.766;2022-12-26T06:10:21;110.93;;;17.60;;
3700;SDS011;1866;48.374;10.766;2022-12-26T06:12:50;104.77;;;14.87;;
3700;SDS011;1866;48.374;10.766;2022-12-26T06:15:17;103.87;;;14.17;;
3700;SDS011;1866;48.374;10.766;2022-12-26T06:17:43;106.67;;;15.37;;
3700;SDS011;1866;48.374;10.766;2022-12-26T06:20:10;110.97;;;15.20;;
3700;SDS011;1866;48.374;10.766;2022-12-26T06:22:37;114.40;;;17.10;;
3700;SDS011;1866;48.374;10.766;2022-12-26T06:25:05;109.80;;;17.77;;
3700;SDS011;1866;48.374;10.766;2022-12-26T06:27:34;107.67;;;15.90;;
3700;SDS011;1866;48.374;10.766;2022-12-26T06:30:01;107.63;;;15.97;;
3700;SDS011;1866;48.374;10.766;2022-12-26T06:32:28;107.67;;;16.70;;
3700;SDS011;1866;48.374;10.766;2022-12-26T06:34:55;106.70;;;15.57;;
3700;SDS011;1866;48.374;10.766;2022-12-26T06:37:22;105.27;;;15.00;;
3700;SDS011;1866;48.374;10.766;2022-12-26T06:39:48;106.10;;;15.50;;
3700;SDS011;1866;48.374;10.766;2022-12-26T06:42:16;106.50;;;15.50;;
3700;SDS011;1866;48.374;10.766;2022-12-26T06:44:45;107.27;;;14.63;;
3700;SDS011;1866;48.374;10.766;2022-12-26T06:47:11;108.37;;;15.17;;
3700;SDS011;1866;48.374;10.766;2022-12-26T06:49:38;104.00;;;14.60;;
3700;SDS011;1866;48.374;10.766;2022-12-26T06:52:05;104.60;;;15.10;;
3700;SDS011;1866;48.374;10.766;2022-12-26T06:54:32;103.83;;;14.30;;
3700;SDS011;1866;48.374;10.766;2022-12-26T06:56:59;105.20;;;15.10;;
3700;SDS011;1866;48.374;10.766;2022-12-26T06:59:26;105.17;;;15.03;;
3700;SDS011;1866;48.374;10.766;2022-12-26T07:01:54;104.30;;;14.50;;
3700;SDS011;1866;48.374;10.766;2022-12-26T07:04:21;105.50;;;14.87;;
3700;SDS011;1866;48.374;10.766;2022-12-26T07:06:49;106.13;;;14.87;;
3700;SDS011;1866;48.374;10.766;2022-12-26T07:09:17;104.60;;;14.93;;
3700;SDS011;1866;48.374;10.766;2022-12-26T07:11:44;106.07;;;15.80;;
3700;SDS011;1866;48.374;10.766;2022-12-26T07:14:13;103.43;;;14.50;;
3700;SDS011;1866;48.374;10.766;2022-12-26T07:16:41;108.30;;;15.83;;
3700;SDS011;1866;48.374;10.766;2022-12-26T07:19:10;105.47;;;15.30;;
3700;SDS011;1866;48.374;10.766;2022-12-26T07:21:38;105.77;;;15.60;;
3700;SDS011;1866;48.374;10.766;2022-12-26T07:24:06;106.50;;;14.97;;
3700;SDS011;1866;48.374;10.766;2022-12-26T07:26:38;105.67;;;15.07;;
3700;SDS011;1866;48.374;10.766;2022-12-26T07:29:05;104.80;;;14.60;;
3700;SDS011;1866;48.374;10.766;2022-12-26T07:31:32;108.17;;;14.90;;
3700;SDS011;1866;48.374;10.766;2022-12-26T07:33:59;107.10;;;14.80;;
3700;SDS011;1866;48.374;10.766;2022-12-26T07:36:27;103.87;;;14.10;;
3700;SDS011;1866;48.374;10.766;2022-12-26T07:38:54;105.10;;;14.60;;
3700;SDS011;1866;48.374;10.766;2022-12-26T07:41:21;105.87;;;14.37;;
3700;SDS011;1866;48.374;10.766;2022-12-26T07:44:05;104.67;;;14.30;;
3700;SDS011;1866;48.374;10.766;2022-12-26T07:46:32;106.97;;;14.20;;
3700;SDS011;1866;48.374;10.766;2022-12-26T07:48:59;105.27;;;14.50;;
3700;SDS011;1866;48.374;10.766;2022-12-26T07:51:27;105.90;;;13.73;;
3700;SDS011;1866;48.374;10.766;2022-12-26T07:53:54;106.50;;;13.23;;
3700;SDS011;1866;48.374;10.766;2022-12-26T07:56:21;105.40;;;13.50;;
3700;SDS011;1866;48.374;10.766;2022-12-26T07:58:48;105.90;;;14.13;;
3700;SDS011;1866;48.374;10.766;2022-12-26T08:01:16;105.17;;;13.47;;
3700;SDS011;1866;48.374;10.766;2022-12-26T08:03:43;106.97;;;14.20;;
3700;SDS011;1866;48.374;10.766;2022-12-26T08:06:10;104.90;;;13.20;;
3700;SDS011;1866;48.374;10.766;2022-12-26T08:08:38;104.67;;;13.37;;
3700;SDS011;1866;48.374;10.766;2022-12-26T08:11:06;106.80;;;13.83;;
3700;SDS011;1866;48.374;10.766;2022-12-26T08:13:41;104.20;;;13.17;;
3700;SDS011;1866;48.374;10.766;2022-12-26T08:16:09;106.47;;;13.43;;
3700;SDS011;1866;48.374;10.766;2022-12-26T08:18:38;104.90;;;13.30;;
3700;SDS011;1866;48.374;10.766;2022-12-26T08:21:05;103.47;;;12.33;;
3700;SDS011;1866;48.374;10.766;2022-12-26T08:23:32;104.80;;;13.07;;
3700;SDS011;1866;48.374;10.766;2022-12-26T08:26:03;106.30;;;13.50;;
3700;SDS011;1866;48.374;10.766;2022-12-26T08:28:31;105.17;;;12.77;;
3700;SDS011;1866;48.374;10.766;2022-12-26T08:30:58;105.87;;;13.30;;
3700;SDS011;1866;48.374;10.766;2022-12-26T08:33:25;104.53;;;12.30;;
3700;SDS011;1866;48.374;10.766;2022-12-26T08:35:52;104.70;;;12.40;;
3700;SDS011;1866;48.374;10.766;2022-12-26T08:38:18;104.30;;;12.70;;
3700;SDS011;1866;48.374;10.766;2022-12-26T08:40:51;107.97;;;13.90;;
3700;SDS011;1866;48.374;10.766;2022-12-26T08:43:21;104.40;;;12.90;;
3700;SDS011;1866;48.374;10.766;2022-12-26T08:45:55;103.27;;;11.80;;
3700;SDS011;1866;48.374;10.766;2022-12-26T08:48:23;104.67;;;11.80;;
3700;SDS011;1866;48.374;10.766;2022-12-26T08:50:54;103.70;;;12.20;;
3700;SDS011;1866;48.374;10.766;2022-12-26T08:53:26;103.37;;;11.40;;
3700;SDS011;1866;48.374;10.766;2022-12-26T08:55:54;106.60;;;10.70;;
3700;SDS011;1866;48.374;10.766;2022-12-26T08:58:22;107.87;;;10.80;;
3700;SDS011;1866;48.374;10.766;2022-12-26T09:00:49;102.77;;;10.20;;
3700;SDS011;1866;48.374;10.766;2022-12-26T09:03:16;104.07;;;11.20;;
3700;SDS011;1866;48.374;10.766;2022-12-26T09:05:43;103.17;;;10.60;;
3700;SDS011;1866;48.374;10.766;2022-12-26T09:08:10;102.80;;;10.20;;
3700;SDS011;1866;48.374;10.766;2022-12-26T09:10:37;103.87;;;10.70;;
3700;SDS011;1866;48.374;10.766;2022-12-26T09:13:04;103.50;;;10.60;;
3700;SDS011;1866;48.374;10.766;2022-12-26T09:15:32;102.07;;;10.10;;
3700;SDS011;1866;48.374;10.766;2022-12-26T09:17:59;106.40;;;12.10;;
3700;SDS011;1866;48.374;10.766;2022-12-26T09:20:26;107.30;;;12.90;;
3700;SDS011;1866;48.374;10.766;2022-12-26T09:22:53;107.80;;;13.43;;
3700;SDS011;1866;48.374;10.766;2022-12-26T09:25:20;102.80;;;10.07;;
3700;SDS011;1866;48.374;10.766;2022-12-26T09:27:51;105.50;;;11.43;;
3700;SDS011;1866;48.374;10.766;2022-12-26T09:30:19;107.87;;;11.13;;
3700;SDS011;1866;48.374;10.766;2022-12-26T09:32:48;104.10;;;9.70;;
3700;SDS011;1866;48.374;10.766;2022-12-26T09:35:15;103.33;;;9.33;;
3700;SDS011;1866;48.374;10.766;2022-12-26T09:37:42;108.00;;;10.83;;
3700;SDS011;1866;48.374;10.766;2022-12-26T09:40:25;107.57;;;11.23;;
3700;SDS011;1866;48.374;10.766;2022-12-26T09:43:00;108.60;;;9.90;;
3700;SDS011;1866;48.374;10.766;2022-12-26T09:45:40;102.33;;;9.57;;
3700;SDS011;1866;48.374;10.766;2022-12-26T09:48:17;101.03;;;8.17;;
3700;SDS011;1866;48.374;10.766;2022-12-26T09:50:48;102.40;;;8.50;;
3700;SDS011;1866;48.374;10.766;2022-12-26T09:53:17;103.87;;;8.60;;
3700;SDS011;1866;48.374;10.766;2022-12-26T09:55:47;102.70;;;8.50;;
3700;SDS011;1866;48.374;10.766;2022-12-26T09:58:20;101.80;;;8.10;;
3700;SDS011;1866;48.374;10.766;2022-12-26T10:00:52;102.27;;;8.43;;
3700;SDS011;1866;48.374;10.766;2022-12-26T10:03:25;100.67;;;7.20;;
3700;SDS011;1866;48.374;10.766;2022-12-26T10:06:01;101.67;;;7.80;;
3700;SDS011;1866;48.374;10.766;2022-12-26T10:08:39;101.40;;;7.40;;
3700;SDS011;1866;48.374;10.766;2022-12-26T10:11:14;102.97;;;8.37;;
3700;SDS011;1866;48.374;10.766;2022-12-26T10:13:48;109.90;;;9.50;;
3700;SDS011;1866;48.374;10.766;2022-12-26T10:16:20;102.97;;;7.90;;
3700;SDS011;1866;48.374;10.766;2022-12-26T10:18:54;108.60;;;8.53;;
3700;SDS011;1866;48.374;10.766;2022-12-26T10:21:31;108.40;;;8.60;;
3700;SDS011;1866;48.374;10.766;2022-12-26T10:24:07;104.00;;;7.50;;
3700;SDS011;1866;48.374;10.766;2022-12-26T10:26:41;103.07;;;7.80;;
3700;SDS011;1866;48.374;10.766;2022-12-26T10:29:12;101.90;;;7.40;;
3700;SDS011;1866;48.374;10.766;2022-12-26T10:31:47;101.77;;;6.73;;
3700;SDS011;1866;48.374;10.766;2022-12-26T10:34:20;104.10;;;7.20;;
3700;SDS011;1866;48.374;10.766;2022-12-26T10:36:51;100.37;;;6.70;;
3700;SDS011;1866;48.374;10.766;2022-12-26T10:39:23;101.40;;;7.00;;
3700;SDS011;1866;48.374;10.766;2022-12-26T10:41:54;101.30;;;7.07;;
3700;SDS011;1866;48.374;10.766;2022-12-26T10:44:24;100.27;;;6.50;;
3700;SDS011;1866;48.374;10.766;2022-12-26T10:47:15;104.67;;;7.00;;
3700;SDS011;1866;48.374;10.766;2022-12-26T10:49:50;101.93;;;7.00;;
3700;SDS011;1866;48.374;10.766;2022-12-26T10:52:25;101.70;;;7.23;;
3700;SDS011;1866;48.374;10.766;2022-12-26T10:54:56;103.07;;;7.50;;
3700;SDS011;1866;48.374;10.766;2022-12-26T10:57:25;101.07;;;7.10;;
3700;SDS011;1866;48.374;10.766;2022-12-26T10:59:54;103.50;;;7.53;;
3700;SDS011;1866;48.374;10.766;2022-12-26T11:02:23;100.97;;;7.03;;
3700;SDS011;1866;48.374;10.766;2022-12-26T11:05:00;101.50;;;7.00;;
3700;SDS011;1866;48.374;10.766;2022-12-26T11:07:33;102.30;;;7.70;;
3700;SDS011;1866;48.374;10.766;2022-12-26T11:10:02;103.10;;;7.77;;
3700;SDS011;1866;48.374;10.766;2022-12-26T11:12:37;105.70;;;8.93;;
3700;SDS011;1866;48.374;10.766;2022-12-26T11:15:16;106.27;;;9.33;;
3700;SDS011;1866;48.374;10.766;2022-12-26T11:17:46;101.27;;;8.47;;
3700;SDS011;1866;48.374;10.766;2022-12-26T11:20:25;104.70;;;8.03;;
3700;SDS011;1866;48.374;10.766;2022-12-26T11:22:54;103.10;;;9.20;;
3700;SDS011;1866;48.374;10.766;2022-12-26T11:25:46;103.70;;;9.00;;
3700;SDS011;1866;48.374;10.766;2022-12-26T11:28:18;101.77;;;9.43;;
3700;SDS011;1866;48.374;10.766;2022-12-26T11:30:49;106.07;;;9.60;;
3700;SDS011;1866;48.374;10.766;2022-12-26T11:33:21;100.67;;;9.70;;
3700;SDS011;1866;48.374;10.766;2022-12-26T11:35:54;102.40;;;10.07;;
3700;SDS011;1866;48.374;10.766;2022-12-26T11:38:31;103.60;;;11.20;;
3700;SDS011;1866;48.374;10.766;2022-12-26T11:41:06;102.20;;;10.50;;
3700;SDS011;1866;48.374;10.766;2022-12-26T11:43:53;101.80;;;10.73;;
3700;SDS011;1866;48.374;10.766;2022-12-26T11:46:29;103.60;;;11.53;;
3700;SDS011;1866;48.374;10.766;2022-12-26T11:48:59;100.90;;;10.97;;
3700;SDS011;1866;48.374;10.766;2022-12-26T11:51:35;101.73;;;11.57;;
3700;SDS011;1866;48.374;10.766;2022-12-26T11:54:20;102.50;;;11.33;;
3700;SDS011;1866;48.374;10.766;2022-12-26T11:56:59;103.77;;;11.70;;
3700;SDS011;1866;48.374;10.766;2022-12-26T11:59:44;101.57;;;11.70;;
3700;SDS011;1866;48.374;10.766;2022-12-26T12:02:16;104.27;;;13.30;;
3700;SDS011;1866;48.374;10.766;2022-12-26T12:04:50;105.20;;;13.30;;
3700;SDS011;1866;48.374;10.766;2022-12-26T12:07:29;106.50;;;14.00;;
3700;SDS011;1866;48.374;10.766;2022-12-26T12:10:27;113.73;;;17.60;;
3700;SDS011;1866;48.374;10.766;2022-12-26T12:13:26;109.67;;;16.37;;
3700;SDS011;1866;48.374;10.766;2022-12-26T12:16:11;107.70;;;16.00;;
3700;SDS011;1866;48.374;10.766;2022-12-26T12:18:54;111.63;;;16.40;;
3700;SDS011;1866;48.374;10.766;2022-12-26T12:21:28;111.20;;;16.63;;
3700;SDS011;1866;48.374;10.766;2022-12-26T12:27:00;106.97;;;14.93;;
3700;SDS011;1866;48.374;10.766;2022-12-26T12:29:39;109.77;;;15.90;;
3700;SDS011;1866;48.374;10.766;2022-12-26T12:32:16;107.60;;;15.90;;
3700;SDS011;1866;48.374;10.766;2022-12-26T12:37:51;107.57;;;16.07;;
3700;SDS011;1866;48.374;10.766;2022-12-26T12:40:32;110.03;;;16.13;;
3700;SDS011;1866;48.374;10.766;2022-12-26T12:43:07;109.10;;;17.10;;
3700;SDS011;1866;48.374;10.766;2022-12-26T12:45:44;110.90;;;17.67;;
3700;SDS011;1866;48.374;10.766;2022-12-26T12:48:22;111.00;;;17.37;;
3700;SDS011;1866;48.374;10.766;2022-12-26T12:51:01;111.93;;;18.33;;
3700;SDS011;1866;48.374;10.766;2022-12-26T12:53:37;111.90;;;18.40;;
3700;SDS011;1866;48.374;10.766;2022-12-26T12:56:21;114.00;;;20.03;;
3700;SDS011;1866;48.374;10.766;2022-12-26T12:58:55;112.27;;;19.07;;
3700;SDS011;1866;48.374;10.766;2022-12-26T13:01:31;112.77;;;18.33;;
3700;SDS011;1866;48.374;10.766;2022-12-26T13:04:03;115.50;;;20.50;;
3700;SDS011;1866;48.374;10.766;2022-12-26T13:06:35;116.60;;;20.40;;
3700;SDS011;1866;48.374;10.766;2022-12-26T13:09:06;114.80;;;19.67;;
3700;SDS011;1866;48.374;10.766;2022-12-26T13:11:41;115.30;;;19.53;;
3700;SDS011;1866;48.374;10.766;2022-12-26T13:14:12;113.50;;;18.90;;
3700;SDS011;1866;48.374;10.766;2022-12-26T13:16:45;111.87;;;18.20;;
3700;SDS011;1866;48.374;10.766;2022-12-26T13:19:16;112.23;;;18.47;;
3700;SDS011;1866;48.374;10.766;2022-12-26T13:21:45;112.30;;;18.87;;
3700;SDS011;1866;48.374;10.766;2022-12-26T13:24:14;113.13;;;18.53;;
3700;SDS011;1866;48.374;10.766;2022-12-26T13:26:52;113.10;;;18.90;;
3700;SDS011;1866;48.374;10.766;2022-12-26T13:29:31;112.33;;;17.93;;
3700;SDS011;1866;48.374;10.766;2022-12-26T13:32:01;113.30;;;18.30;;
3700;SDS011;1866;48.374;10.766;2022-12-26T13:34:29;111.97;;;18.50;;
3700;SDS011;1866;48.374;10.766;2022-12-26T13:36:57;112.53;;;18.60;;
3700;SDS011;1866;48.374;10.766;2022-12-26T13:39:35;113.10;;;18.30;;
3700;SDS011;1866;48.374;10.766;2022-12-26T13:51:44;112.67;;;18.30;;
3700;SDS011;1866;48.374;10.766;2022-12-26T13:54:16;114.67;;;19.20;;
3700;SDS011;1866;48.374;10.766;2022-12-26T13:56:54;114.40;;;18.07;;
3700;SDS011;1866;48.374;10.766;2022-12-26T13:59:44;109.87;;;16.90;;
3700;SDS011;1866;48.374;10.766;2022-12-26T14:05:37;117.90;;;17.37;;
3700;SDS011;1866;48.374;10.766;2022-12-26T14:08:10;110.10;;;17.20;;
3700;SDS011;1866;48.374;10.766;2022-12-26T14:10:47;109.67;;;17.10;;
3700;SDS011;1866;48.374;10.766;2022-12-26T14:13:30;109.97;;;16.70;;
3700;SDS011;1866;48.374;10.766;2022-12-26T14:16:18;109.83;;;17.10;;
3700;SDS011;1866;48.374;10.766;2022-12-26T14:18:56;113.23;;;16.90;;
3700;SDS011;1866;48.374;10.766;2022-12-26T14:21:31;109.27;;;16.80;;
3700;SDS011;1866;48.374;10.766;2022-12-26T14:24:07;109.10;;;17.00;;
3700;SDS011;1866;48.374;10.766;2022-12-26T14:26:45;110.17;;;17.57;;
3700;SDS011;1866;48.374;10.766;2022-12-26T14:29:20;109.70;;;17.80;;
3700;SDS011;1866;48.374;10.766;2022-12-26T14:31:57;110.40;;;17.53;;
3700;SDS011;1866;48.374;10.766;2022-12-26T14:34:39;108.90;;;16.90;;
3700;SDS011;1866;48.374;10.766;2022-12-26T14:37:17;110.60;;;17.10;;
3700;SDS011;1866;48.374;10.766;2022-12-26T14:39:55;108.93;;;17.20;;
3700;SDS011;1866;48.374;10.766;2022-12-26T14:42:31;109.37;;;17.60;;
3700;SDS011;1866;48.374;10.766;2022-12-26T14:45:39;110.17;;;17.60;;
3700;SDS011;1866;48.374;10.766;2022-12-26T14:51:33;117.07;;;20.07;;
3700;SDS011;1866;48.374;10.766;2022-12-26T14:57:02;111.73;;;18.43;;
3700;SDS011;1866;48.374;10.766;2022-12-26T15:12:44;111.87;;;18.60;;
3700;SDS011;1866;48.374;10.766;2022-12-26T15:15:46;111.53;;;18.00;;
3700;SDS011;1866;48.374;10.766;2022-12-26T15:18:37;112.77;;;18.97;;
3700;SDS011;1866;48.374;10.766;2022-12-26T15:28:05;112.77;;;19.13;;
3700;SDS011;1866;48.374;10.766;2022-12-26T15:30:55;114.27;;;19.80;;
3700;SDS011;1866;48.374;10.766;2022-12-26T15:33:34;117.20;;;20.63;;
3700;SDS011;1866;48.374;10.766;2022-12-26T15:36:05;111.13;;;18.00;;
3700;SDS011;1866;48.374;10.766;2022-12-26T15:38:45;112.67;;;18.60;;
3700;SDS011;1866;48.374;10.766;2022-12-26T15:41:30;111.17;;;18.73;;
3700;SDS011;1866;48.374;10.766;2022-12-26T15:44:10;111.77;;;18.80;;
3700;SDS011;1866;48.374;10.766;2022-12-26T15:46:54;112.87;;;19.10;;
3700;SDS011;1866;48.374;10.766;2022-12-26T15:49:37;109.80;;;17.47;;
3700;SDS011;1866;48.374;10.766;2022-12-26T15:52:13;110.30;;;17.50;;
3700;SDS011;1866;48.374;10.766;2022-12-26T15:54:57;110.60;;;17.17;;
3700;SDS011;1866;48.374;10.766;2022-12-26T15:57:44;113.07;;;17.67;;
3700;SDS011;1866;48.374;10.766;2022-12-26T16:00:16;109.30;;;17.37;;